sensor_id;sensor_type;location;lat;lon;timestamp;P1;durP1;ratioP1;P2;durP2;ratioP2
33413;SDS011;60055;41.884;12.534;2022-09-09T00:00:08;22.13;;;6.82;;
33413;SDS011;60055;41.884;12.534;2022-09-09T00:02:37;22.75;;;5.78;;
33413;SDS011;60055;41.884;12.534;2022-09-09T00:05:19;22.60;;;5.70;;
33413;SDS011;60055;41.884;12.534;2022-09-09T00:07:54;25.63;;;6.35;;
33413;SDS011;60055;41.884;12.534;2022-09-09T00:12:57;22.70;;;6.10;;
33413;SDS011;60055;41.884;12.534;2022-09-09T00:15:28;26.98;;;6.85;;
33413;SDS011;60055;41.884;12.534;2022-09-09T00:18:07;21.40;;;7.07;;
33413;SDS011;60055;41.884;12.534;2022-09-09T00:29:03;24.52;;;6.65;;
33413;SDS011;60055;41.884;12.534;2022-09-09T00:31:35;26.33;;;6.18;;
33413;SDS011;60055;41.884;12.534;2022-09-09T00:34:09;23.77;;;6.20;;
33413;SDS011;60055;41.884;12.534;2022-09-09T00:36:37;22.10;;;6.25;;
33413;SDS011;60055;41.884;12.534;2022-09-09T00:39:04;30.80;;;6.53;;
33413;SDS011;60055;41.884;12.534;2022-09-09T00:41:47;26.20;;;6.53;;
33413;SDS011;60055;41.884;12.534;2022-09-09T00:44:37;21.33;;;6.63;;
33413;SDS011;60055;41.884;12.534;2022-09-09T00:50:03;23.73;;;6.80;;
33413;SDS011;60055;41.884;12.534;2022-09-09T00:52:41;28.90;;;6.40;;
33413;SDS011;60055;41.884;12.534;2022-09-09T00:55:33;22.40;;;7.07;;
33413;SDS011;60055;41.884;12.534;2022-09-09T00:58:13;24.80;;;6.90;;
33413;SDS011;60055;41.884;12.534;2022-09-09T01:03:22;20.25;;;6.50;;
33413;SDS011;60055;41.884;12.534;2022-09-09T01:11:22;24.80;;;6.43;;
33413;SDS011;60055;41.884;12.534;2022-09-09T01:14:41;21.42;;;5.82;;
33413;SDS011;60055;41.884;12.534;2022-09-09T01:17:13;24.33;;;6.65;;
33413;SDS011;60055;41.884;12.534;2022-09-09T01:22:12;16.63;;;5.80;;
33413;SDS011;60055;41.884;12.534;2022-09-09T01:27:46;23.15;;;5.90;;
33413;SDS011;60055;41.884;12.534;2022-09-09T01:30:15;19.15;;;5.75;;
33413;SDS011;60055;41.884;12.534;2022-09-09T01:35:09;17.80;;;5.45;;
33413;SDS011;60055;41.884;12.534;2022-09-09T01:38:02;17.00;;;5.28;;
33413;SDS011;60055;41.884;12.534;2022-09-09T01:40:28;16.05;;;5.65;;
33413;SDS011;60055;41.884;12.534;2022-09-09T01:42:53;19.27;;;5.70;;
33413;SDS011;60055;41.884;12.534;2022-09-09T01:45:20;21.75;;;6.05;;
33413;SDS011;60055;41.884;12.534;2022-09-09T01:47:47;21.13;;;6.18;;
33413;SDS011;60055;41.884;12.534;2022-09-09T01:50:14;19.85;;;5.75;;
33413;SDS011;60055;41.884;12.534;2022-09-09T01:52:41;21.83;;;5.63;;
33413;SDS011;60055;41.884;12.534;2022-09-09T01:55:12;19.35;;;5.43;;
33413;SDS011;60055;41.884;12.534;2022-09-09T02:01:03;14.52;;;4.03;;
33413;SDS011;60055;41.884;12.534;2022-09-09T02:03:33;15.57;;;3.33;;
33413;SDS011;60055;41.884;12.534;2022-09-09T02:08:50;13.90;;;3.30;;
33413;SDS011;60055;41.884;12.534;2022-09-09T02:11:21;15.00;;;3.65;;
33413;SDS011;60055;41.884;12.534;2022-09-09T02:13:51;11.38;;;3.00;;
33413;SDS011;60055;41.884;12.534;2022-09-09T02:16:24;13.15;;;3.60;;
33413;SDS011;60055;41.884;12.534;2022-09-09T02:21:56;13.80;;;3.10;;
33413;SDS011;60055;41.884;12.534;2022-09-09T02:24:24;11.45;;;2.63;;
33413;SDS011;60055;41.884;12.534;2022-09-09T02:26:53;8.13;;;2.70;;
33413;SDS011;60055;41.884;12.534;2022-09-09T02:29:22;11.82;;;2.95;;
33413;SDS011;60055;41.884;12.534;2022-09-09T02:31:55;14.05;;;3.60;;
33413;SDS011;60055;41.884;12.534;2022-09-09T02:34:28;13.32;;;3.25;;
33413;SDS011;60055;41.884;12.534;2022-09-09T02:36:55;14.00;;;3.78;;
33413;SDS011;60055;41.884;12.534;2022-09-09T02:39:25;14.18;;;3.47;;
33413;SDS011;60055;41.884;12.534;2022-09-09T02:41:50;11.75;;;3.40;;
33413;SDS011;60055;41.884;12.534;2022-09-09T02:44:17;12.00;;;3.03;;
33413;SDS011;60055;41.884;12.534;2022-09-09T02:52:07;14.20;;;3.42;;
33413;SDS011;60055;41.884;12.534;2022-09-09T02:54:38;13.35;;;3.05;;
33413;SDS011;60055;41.884;12.534;2022-09-09T02:57:11;13.70;;;3.20;;
33413;SDS011;60055;41.884;12.534;2022-09-09T02:59:52;12.68;;;2.80;;
33413;SDS011;60055;41.884;12.534;2022-09-09T03:02:18;14.20;;;3.00;;
33413;SDS011;60055;41.884;12.534;2022-09-09T03:04:44;10.50;;;3.13;;
33413;SDS011;60055;41.884;12.534;2022-09-09T03:07:15;12.48;;;3.22;;
33413;SDS011;60055;41.884;12.534;2022-09-09T03:09:42;14.32;;;3.08;;
33413;SDS011;60055;41.884;12.534;2022-09-09T03:12:08;16.10;;;3.33;;
33413;SDS011;60055;41.884;12.534;2022-09-09T03:14:35;15.88;;;3.22;;
33413;SDS011;60055;41.884;12.534;2022-09-09T03:17:03;11.75;;;3.08;;
33413;SDS011;60055;41.884;12.534;2022-09-09T03:19:29;10.73;;;3.03;;
33413;SDS011;60055;41.884;12.534;2022-09-09T03:21:55;11.63;;;2.92;;
33413;SDS011;60055;41.884;12.534;2022-09-09T03:24:21;14.15;;;3.30;;
33413;SDS011;60055;41.884;12.534;2022-09-09T03:26:47;14.00;;;3.38;;
33413;SDS011;60055;41.884;12.534;2022-09-09T03:29:13;14.68;;;3.65;;
33413;SDS011;60055;41.884;12.534;2022-09-09T03:31:40;13.30;;;3.30;;
33413;SDS011;60055;41.884;12.534;2022-09-09T03:34:06;11.85;;;3.35;;
33413;SDS011;60055;41.884;12.534;2022-09-09T03:36:32;15.60;;;3.72;;
33413;SDS011;60055;41.884;12.534;2022-09-09T03:38:57;16.63;;;4.07;;
33413;SDS011;60055;41.884;12.534;2022-09-09T03:41:24;16.05;;;4.18;;
33413;SDS011;60055;41.884;12.534;2022-09-09T03:43:51;15.10;;;4.38;;
33413;SDS011;60055;41.884;12.534;2022-09-09T03:46:17;14.65;;;4.50;;
33413;SDS011;60055;41.884;12.534;2022-09-09T03:48:43;23.60;;;5.20;;
33413;SDS011;60055;41.884;12.534;2022-09-09T03:51:10;22.42;;;5.47;;
33413;SDS011;60055;41.884;12.534;2022-09-09T03:53:36;20.92;;;5.03;;
33413;SDS011;60055;41.884;12.534;2022-09-09T03:56:03;22.67;;;6.25;;
33413;SDS011;60055;41.884;12.534;2022-09-09T03:58:31;22.52;;;5.80;;
33413;SDS011;60055;41.884;12.534;2022-09-09T04:00:59;19.08;;;5.53;;
33413;SDS011;60055;41.884;12.534;2022-09-09T04:03:26;22.48;;;5.88;;
33413;SDS011;60055;41.884;12.534;2022-09-09T04:05:52;26.35;;;5.88;;
33413;SDS011;60055;41.884;12.534;2022-09-09T04:08:19;16.25;;;5.43;;
33413;SDS011;60055;41.884;12.534;2022-09-09T04:10:46;21.27;;;5.28;;
33413;SDS011;60055;41.884;12.534;2022-09-09T04:13:14;17.38;;;5.57;;
33413;SDS011;60055;41.884;12.534;2022-09-09T04:15:42;20.67;;;5.35;;
33413;SDS011;60055;41.884;12.534;2022-09-09T04:18:08;17.42;;;5.25;;
33413;SDS011;60055;41.884;12.534;2022-09-09T04:20:34;22.13;;;4.78;;
33413;SDS011;60055;41.884;12.534;2022-09-09T04:23:00;16.65;;;4.95;;
33413;SDS011;60055;41.884;12.534;2022-09-09T04:25:26;20.65;;;4.95;;
33413;SDS011;60055;41.884;12.534;2022-09-09T04:27:55;14.63;;;4.72;;
33413;SDS011;60055;41.884;12.534;2022-09-09T04:30:22;21.60;;;5.70;;
33413;SDS011;60055;41.884;12.534;2022-09-09T04:32:48;21.98;;;6.20;;
33413;SDS011;60055;41.884;12.534;2022-09-09T04:35:14;25.20;;;5.78;;
33413;SDS011;60055;41.884;12.534;2022-09-09T04:37:40;20.25;;;5.65;;
33413;SDS011;60055;41.884;12.534;2022-09-09T04:40:06;24.73;;;5.30;;
33413;SDS011;60055;41.884;12.534;2022-09-09T04:42:35;18.05;;;5.30;;
33413;SDS011;60055;41.884;12.534;2022-09-09T04:45:02;18.02;;;5.20;;
33413;SDS011;60055;41.884;12.534;2022-09-09T04:47:28;23.25;;;4.90;;
33413;SDS011;60055;41.884;12.534;2022-09-09T04:49:53;27.40;;;4.82;;
33413;SDS011;60055;41.884;12.534;2022-09-09T04:52:20;18.80;;;4.75;;
33413;SDS011;60055;41.884;12.534;2022-09-09T04:54:45;21.50;;;4.60;;
33413;SDS011;60055;41.884;12.534;2022-09-09T04:57:11;14.65;;;4.07;;
33413;SDS011;60055;41.884;12.534;2022-09-09T04:59:37;17.02;;;4.30;;
33413;SDS011;60055;41.884;12.534;2022-09-09T05:02:04;17.52;;;4.22;;
33413;SDS011;60055;41.884;12.534;2022-09-09T05:04:30;17.83;;;4.70;;
33413;SDS011;60055;41.884;12.534;2022-09-09T05:06:58;15.88;;;4.60;;
33413;SDS011;60055;41.884;12.534;2022-09-09T05:09:24;18.05;;;4.68;;
33413;SDS011;60055;41.884;12.534;2022-09-09T05:11:49;23.42;;;5.15;;
33413;SDS011;60055;41.884;12.534;2022-09-09T05:14:16;20.08;;;5.00;;
33413;SDS011;60055;41.884;12.534;2022-09-09T05:16:42;22.17;;;4.95;;
33413;SDS011;60055;41.884;12.534;2022-09-09T05:19:10;22.35;;;5.68;;
33413;SDS011;60055;41.884;12.534;2022-09-09T05:21:35;21.85;;;5.95;;
33413;SDS011;60055;41.884;12.534;2022-09-09T05:24:02;22.05;;;6.03;;
33413;SDS011;60055;41.884;12.534;2022-09-09T05:26:27;20.88;;;5.32;;
33413;SDS011;60055;41.884;12.534;2022-09-09T05:28:54;19.23;;;5.20;;
33413;SDS011;60055;41.884;12.534;2022-09-09T05:31:20;20.20;;;5.53;;
33413;SDS011;60055;41.884;12.534;2022-09-09T05:33:46;16.83;;;5.32;;
33413;SDS011;60055;41.884;12.534;2022-09-09T05:36:15;22.40;;;5.35;;
33413;SDS011;60055;41.884;12.534;2022-09-09T05:38:42;33.05;;;6.13;;
33413;SDS011;60055;41.884;12.534;2022-09-09T05:41:09;16.80;;;5.20;;
33413;SDS011;60055;41.884;12.534;2022-09-09T05:43:40;22.70;;;5.43;;
33413;SDS011;60055;41.884;12.534;2022-09-09T05:46:17;24.95;;;5.97;;
33413;SDS011;60055;41.884;12.534;2022-09-09T05:48:45;27.70;;;7.53;;
33413;SDS011;60055;41.884;12.534;2022-09-09T05:51:13;23.88;;;6.03;;
33413;SDS011;60055;41.884;12.534;2022-09-09T05:53:41;17.77;;;5.65;;
33413;SDS011;60055;41.884;12.534;2022-09-09T05:56:07;18.38;;;5.53;;
33413;SDS011;60055;41.884;12.534;2022-09-09T05:58:35;19.60;;;5.40;;
33413;SDS011;60055;41.884;12.534;2022-09-09T06:03:31;22.45;;;5.47;;
33413;SDS011;60055;41.884;12.534;2022-09-09T06:05:59;22.63;;;5.60;;
33413;SDS011;60055;41.884;12.534;2022-09-09T06:08:26;25.27;;;5.00;;
33413;SDS011;60055;41.884;12.534;2022-09-09T06:10:52;21.08;;;5.57;;
33413;SDS011;60055;41.884;12.534;2022-09-09T06:13:27;25.10;;;5.20;;
33413;SDS011;60055;41.884;12.534;2022-09-09T06:15:53;26.52;;;5.25;;
33413;SDS011;60055;41.884;12.534;2022-09-09T06:18:18;23.08;;;5.22;;
33413;SDS011;60055;41.884;12.534;2022-09-09T06:20:54;19.45;;;4.95;;
33413;SDS011;60055;41.884;12.534;2022-09-09T06:23:20;27.23;;;5.30;;
33413;SDS011;60055;41.884;12.534;2022-09-09T06:25:46;17.73;;;4.43;;
33413;SDS011;60055;41.884;12.534;2022-09-09T06:28:12;23.23;;;5.03;;
33413;SDS011;60055;41.884;12.534;2022-09-09T06:30:38;16.55;;;4.85;;
33413;SDS011;60055;41.884;12.534;2022-09-09T06:33:06;25.65;;;5.20;;
33413;SDS011;60055;41.884;12.534;2022-09-09T06:35:32;21.05;;;4.88;;
33413;SDS011;60055;41.884;12.534;2022-09-09T06:37:57;21.40;;;4.75;;
33413;SDS011;60055;41.884;12.534;2022-09-09T06:40:23;25.17;;;5.30;;
33413;SDS011;60055;41.884;12.534;2022-09-09T06:42:49;21.48;;;4.95;;
33413;SDS011;60055;41.884;12.534;2022-09-09T06:45:15;23.83;;;5.30;;
33413;SDS011;60055;41.884;12.534;2022-09-09T06:47:41;27.90;;;5.15;;
33413;SDS011;60055;41.884;12.534;2022-09-09T06:50:07;30.08;;;5.80;;
33413;SDS011;60055;41.884;12.534;2022-09-09T06:52:35;21.52;;;4.93;;
33413;SDS011;60055;41.884;12.534;2022-09-09T06:55:01;30.58;;;5.05;;
33413;SDS011;60055;41.884;12.534;2022-09-09T06:57:28;22.63;;;5.00;;
33413;SDS011;60055;41.884;12.534;2022-09-09T06:59:53;21.95;;;4.90;;
33413;SDS011;60055;41.884;12.534;2022-09-09T07:02:20;21.48;;;4.50;;
33413;SDS011;60055;41.884;12.534;2022-09-09T07:04:47;27.63;;;4.35;;
33413;SDS011;60055;41.884;12.534;2022-09-09T07:07:15;21.25;;;4.70;;
33413;SDS011;60055;41.884;12.534;2022-09-09T07:09:40;21.85;;;3.97;;
33413;SDS011;60055;41.884;12.534;2022-09-09T07:12:06;20.70;;;4.25;;
33413;SDS011;60055;41.884;12.534;2022-09-09T07:14:32;15.70;;;4.15;;
33413;SDS011;60055;41.884;12.534;2022-09-09T07:16:59;17.48;;;3.63;;
33413;SDS011;60055;41.884;12.534;2022-09-09T07:19:25;24.05;;;4.32;;
33413;SDS011;60055;41.884;12.534;2022-09-09T07:21:50;23.92;;;4.60;;
33413;SDS011;60055;41.884;12.534;2022-09-09T07:24:16;26.40;;;4.35;;
33413;SDS011;60055;41.884;12.534;2022-09-09T07:26:42;21.50;;;3.65;;
33413;SDS011;60055;41.884;12.534;2022-09-09T07:29:09;30.92;;;3.50;;
33413;SDS011;60055;41.884;12.534;2022-09-09T07:31:38;17.73;;;4.57;;
33413;SDS011;60055;41.884;12.534;2022-09-09T07:34:05;16.73;;;3.85;;
33413;SDS011;60055;41.884;12.534;2022-09-09T07:36:35;20.98;;;4.28;;
33413;SDS011;60055;41.884;12.534;2022-09-09T07:39:04;19.13;;;3.80;;
33413;SDS011;60055;41.884;12.534;2022-09-09T07:41:33;16.95;;;3.70;;
33413;SDS011;60055;41.884;12.534;2022-09-09T07:44:08;20.98;;;3.72;;
33413;SDS011;60055;41.884;12.534;2022-09-09T07:46:36;16.30;;;3.40;;
33413;SDS011;60055;41.884;12.534;2022-09-09T07:49:04;18.75;;;3.53;;
33413;SDS011;60055;41.884;12.534;2022-09-09T07:51:34;22.65;;;3.60;;
33413;SDS011;60055;41.884;12.534;2022-09-09T07:54:03;17.08;;;3.40;;
33413;SDS011;60055;41.884;12.534;2022-09-09T07:56:34;17.20;;;3.08;;
33413;SDS011;60055;41.884;12.534;2022-09-09T07:59:01;18.42;;;2.80;;
33413;SDS011;60055;41.884;12.534;2022-09-09T08:01:31;13.55;;;2.78;;
33413;SDS011;60055;41.884;12.534;2022-09-09T08:04:05;18.60;;;2.78;;
33413;SDS011;60055;41.884;12.534;2022-09-09T08:06:42;14.43;;;3.25;;
33413;SDS011;60055;41.884;12.534;2022-09-09T08:09:11;25.40;;;5.18;;
33413;SDS011;60055;41.884;12.534;2022-09-09T08:11:38;19.25;;;3.63;;
33413;SDS011;60055;41.884;12.534;2022-09-09T08:14:04;14.45;;;3.22;;
33413;SDS011;60055;41.884;12.534;2022-09-09T08:16:33;16.45;;;2.97;;
33413;SDS011;60055;41.884;12.534;2022-09-09T08:19:02;14.05;;;2.72;;
33413;SDS011;60055;41.884;12.534;2022-09-09T08:21:29;12.88;;;3.10;;
33413;SDS011;60055;41.884;12.534;2022-09-09T08:23:58;18.50;;;2.97;;
33413;SDS011;60055;41.884;12.534;2022-09-09T08:26:32;14.15;;;2.70;;
33413;SDS011;60055;41.884;12.534;2022-09-09T08:29:08;17.92;;;3.20;;
33413;SDS011;60055;41.884;12.534;2022-09-09T08:31:48;12.65;;;2.60;;
33413;SDS011;60055;41.884;12.534;2022-09-09T08:34:16;15.50;;;2.67;;
33413;SDS011;60055;41.884;12.534;2022-09-09T08:36:45;9.00;;;2.45;;
33413;SDS011;60055;41.884;12.534;2022-09-09T08:39:13;13.43;;;2.80;;
33413;SDS011;60055;41.884;12.534;2022-09-09T08:44:19;12.68;;;2.67;;
33413;SDS011;60055;41.884;12.534;2022-09-09T08:49:56;15.65;;;3.38;;
33413;SDS011;60055;41.884;12.534;2022-09-09T08:55:44;13.02;;;2.92;;
33413;SDS011;60055;41.884;12.534;2022-09-09T08:58:30;14.43;;;2.70;;
33413;SDS011;60055;41.884;12.534;2022-09-09T09:03:45;18.27;;;2.70;;
33413;SDS011;60055;41.884;12.534;2022-09-09T09:08:58;13.35;;;2.58;;
33413;SDS011;60055;41.884;12.534;2022-09-09T09:11:25;12.88;;;2.10;;
33413;SDS011;60055;41.884;12.534;2022-09-09T09:13:58;12.80;;;2.47;;
33413;SDS011;60055;41.884;12.534;2022-09-09T09:16:40;19.13;;;2.20;;
33413;SDS011;60055;41.884;12.534;2022-09-09T09:19:13;15.27;;;2.42;;
33413;SDS011;60055;41.884;12.534;2022-09-09T09:24:19;11.68;;;2.60;;
33413;SDS011;60055;41.884;12.534;2022-09-09T09:26:47;14.85;;;2.53;;
33413;SDS011;60055;41.884;12.534;2022-09-09T09:29:14;14.57;;;2.40;;
33413;SDS011;60055;41.884;12.534;2022-09-09T09:31:50;17.45;;;2.58;;
33413;SDS011;60055;41.884;12.534;2022-09-09T09:34:20;16.52;;;2.40;;
33413;SDS011;60055;41.884;12.534;2022-09-09T09:36:56;16.52;;;2.92;;
33413;SDS011;60055;41.884;12.534;2022-09-09T09:39:26;13.65;;;2.58;;
33413;SDS011;60055;41.884;12.534;2022-09-09T09:41:54;19.30;;;2.30;;
33413;SDS011;60055;41.884;12.534;2022-09-09T09:47:13;12.52;;;2.47;;
33413;SDS011;60055;41.884;12.534;2022-09-09T09:49:52;11.05;;;2.28;;
33413;SDS011;60055;41.884;12.534;2022-09-09T09:52:24;18.17;;;2.50;;
33413;SDS011;60055;41.884;12.534;2022-09-09T09:54:55;15.10;;;2.50;;
33413;SDS011;60055;41.884;12.534;2022-09-09T09:57:29;14.68;;;2.72;;
33413;SDS011;60055;41.884;12.534;2022-09-09T10:00:12;10.05;;;1.80;;
33413;SDS011;60055;41.884;12.534;2022-09-09T10:02:43;13.00;;;2.33;;
33413;SDS011;60055;41.884;12.534;2022-09-09T10:10:12;13.40;;;2.10;;
33413;SDS011;60055;41.884;12.534;2022-09-09T10:18:47;10.23;;;2.05;;
33413;SDS011;60055;41.884;12.534;2022-09-09T10:57:42;12.63;;;2.22;;
33413;SDS011;60055;41.884;12.534;2022-09-09T11:00:27;10.40;;;1.70;;
33413;SDS011;60055;41.884;12.534;2022-09-09T11:03:03;7.60;;;1.75;;
33413;SDS011;60055;41.884;12.534;2022-09-09T11:05:31;14.30;;;2.20;;
33413;SDS011;60055;41.884;12.534;2022-09-09T11:18:37;12.73;;;1.90;;
33413;SDS011;60055;41.884;12.534;2022-09-09T11:21:07;11.40;;;2.15;;
33413;SDS011;60055;41.884;12.534;2022-09-09T11:23:44;14.05;;;2.50;;
33413;SDS011;60055;41.884;12.534;2022-09-09T11:26:17;9.93;;;1.92;;
33413;SDS011;60055;41.884;12.534;2022-09-09T11:37:03;11.60;;;1.63;;
33413;SDS011;60055;41.884;12.534;2022-09-09T11:42:23;10.63;;;1.65;;
33413;SDS011;60055;41.884;12.534;2022-09-09T11:44:49;6.90;;;1.77;;
33413;SDS011;60055;41.884;12.534;2022-09-09T11:50:40;10.57;;;1.90;;
33413;SDS011;60055;41.884;12.534;2022-09-09T11:52:43;19.20;;;1.90;;
33413;SDS011;60055;41.884;12.534;2022-09-09T11:55:25;8.35;;;1.60;;
33413;SDS011;60055;41.884;12.534;2022-09-09T12:00:37;11.50;;;1.80;;
33413;SDS011;60055;41.884;12.534;2022-09-09T12:03:05;9.65;;;1.63;;
33413;SDS011;60055;41.884;12.534;2022-09-09T12:05:51;10.57;;;1.63;;
33413;SDS011;60055;41.884;12.534;2022-09-09T12:08:19;6.50;;;1.42;;
33413;SDS011;60055;41.884;12.534;2022-09-09T12:10:58;8.00;;;1.40;;
33413;SDS011;60055;41.884;12.534;2022-09-09T12:13:28;9.63;;;1.48;;
33413;SDS011;60055;41.884;12.534;2022-09-09T12:15:56;7.30;;;1.20;;
33413;SDS011;60055;41.884;12.534;2022-09-09T12:18:31;10.30;;;1.52;;
33413;SDS011;60055;41.884;12.534;2022-09-09T12:24:46;11.45;;;1.67;;
33413;SDS011;60055;41.884;12.534;2022-09-09T12:27:15;8.80;;;1.60;;
33413;SDS011;60055;41.884;12.534;2022-09-09T12:32:22;10.38;;;1.70;;
33413;SDS011;60055;41.884;12.534;2022-09-09T12:34:52;9.32;;;1.58;;
33413;SDS011;60055;41.884;12.534;2022-09-09T12:37:27;8.90;;;1.90;;
33413;SDS011;60055;41.884;12.534;2022-09-09T12:40:05;11.95;;;2.65;;
33413;SDS011;60055;41.884;12.534;2022-09-09T12:42:43;9.23;;;2.40;;
33413;SDS011;60055;41.884;12.534;2022-09-09T12:45:19;11.43;;;2.10;;
33413;SDS011;60055;41.884;12.534;2022-09-09T12:50:29;9.15;;;1.67;;
33413;SDS011;60055;41.884;12.534;2022-09-09T12:53:42;8.50;;;1.65;;
33413;SDS011;60055;41.884;12.534;2022-09-09T12:56:44;9.75;;;1.73;;
33413;SDS011;60055;41.884;12.534;2022-09-09T12:58:45;10.55;;;1.80;;
33413;SDS011;60055;41.884;12.534;2022-09-09T13:01:22;10.02;;;2.00;;
33413;SDS011;60055;41.884;12.534;2022-09-09T13:03:52;13.32;;;1.80;;
33413;SDS011;60055;41.884;12.534;2022-09-09T13:06:27;12.38;;;1.77;;
33413;SDS011;60055;41.884;12.534;2022-09-09T13:08:55;9.75;;;1.90;;
33413;SDS011;60055;41.884;12.534;2022-09-09T13:11:26;14.32;;;2.20;;
33413;SDS011;60055;41.884;12.534;2022-09-09T13:14:01;11.52;;;2.10;;
33413;SDS011;60055;41.884;12.534;2022-09-09T13:16:31;10.50;;;2.20;;
33413;SDS011;60055;41.884;12.534;2022-09-09T13:19:08;11.57;;;2.00;;
33413;SDS011;60055;41.884;12.534;2022-09-09T13:21:39;13.68;;;2.63;;
33413;SDS011;60055;41.884;12.534;2022-09-09T13:24:06;12.90;;;2.10;;
33413;SDS011;60055;41.884;12.534;2022-09-09T13:26:54;6.82;;;1.70;;
33413;SDS011;60055;41.884;12.534;2022-09-09T13:29:26;13.05;;;2.30;;
33413;SDS011;60055;41.884;12.534;2022-09-09T13:31:53;13.25;;;2.20;;
33413;SDS011;60055;41.884;12.534;2022-09-09T13:34:28;12.23;;;1.92;;
33413;SDS011;60055;41.884;12.534;2022-09-09T13:36:58;8.40;;;1.70;;
33413;SDS011;60055;41.884;12.534;2022-09-09T13:39:28;10.23;;;1.80;;
33413;SDS011;60055;41.884;12.534;2022-09-09T13:41:54;13.20;;;2.00;;
33413;SDS011;60055;41.884;12.534;2022-09-09T13:44:23;10.35;;;2.03;;
33413;SDS011;60055;41.884;12.534;2022-09-09T13:47:01;10.73;;;1.80;;
33413;SDS011;60055;41.884;12.534;2022-09-09T13:49:27;11.43;;;1.60;;
33413;SDS011;60055;41.884;12.534;2022-09-09T13:52:03;8.52;;;1.48;;
33413;SDS011;60055;41.884;12.534;2022-09-09T13:54:31;12.30;;;1.70;;
33413;SDS011;60055;41.884;12.534;2022-09-09T13:56:56;12.68;;;1.67;;
33413;SDS011;60055;41.884;12.534;2022-09-09T13:59:22;13.05;;;1.60;;
33413;SDS011;60055;41.884;12.534;2022-09-09T14:01:49;7.03;;;1.52;;
33413;SDS011;60055;41.884;12.534;2022-09-09T14:04:17;16.35;;;1.50;;
33413;SDS011;60055;41.884;12.534;2022-09-09T14:06:46;9.00;;;1.70;;
33413;SDS011;60055;41.884;12.534;2022-09-09T14:09:12;10.60;;;1.80;;
33413;SDS011;60055;41.884;12.534;2022-09-09T14:11:40;10.48;;;1.80;;
33413;SDS011;60055;41.884;12.534;2022-09-09T14:14:06;10.95;;;1.70;;
33413;SDS011;60055;41.884;12.534;2022-09-09T14:16:32;14.05;;;1.73;;
33413;SDS011;60055;41.884;12.534;2022-09-09T14:18:58;8.20;;;1.35;;
33413;SDS011;60055;41.884;12.534;2022-09-09T14:21:24;10.13;;;1.30;;
33413;SDS011;60055;41.884;12.534;2022-09-09T14:23:51;9.40;;;1.35;;
33413;SDS011;60055;41.884;12.534;2022-09-09T14:26:18;11.10;;;1.48;;
33413;SDS011;60055;41.884;12.534;2022-09-09T14:28:46;8.13;;;1.38;;
33413;SDS011;60055;41.884;12.534;2022-09-09T14:31:12;9.20;;;1.80;;
33413;SDS011;60055;41.884;12.534;2022-09-09T14:33:39;7.32;;;1.38;;
33413;SDS011;60055;41.884;12.534;2022-09-09T14:36:05;6.38;;;1.20;;
33413;SDS011;60055;41.884;12.534;2022-09-09T14:38:32;8.48;;;1.35;;
33413;SDS011;60055;41.884;12.534;2022-09-09T14:41:02;6.55;;;1.48;;
33413;SDS011;60055;41.884;12.534;2022-09-09T14:43:28;12.55;;;1.40;;
33413;SDS011;60055;41.884;12.534;2022-09-09T14:45:55;13.38;;;1.48;;
33413;SDS011;60055;41.884;12.534;2022-09-09T14:48:20;8.45;;;1.35;;
33413;SDS011;60055;41.884;12.534;2022-09-09T14:50:46;9.88;;;1.30;;
33413;SDS011;60055;41.884;12.534;2022-09-09T14:53:12;10.80;;;1.50;;
33413;SDS011;60055;41.884;12.534;2022-09-09T14:55:37;10.07;;;1.42;;
33413;SDS011;60055;41.884;12.534;2022-09-09T14:58:03;11.80;;;1.65;;
33413;SDS011;60055;41.884;12.534;2022-09-09T15:00:31;11.05;;;1.70;;
33413;SDS011;60055;41.884;12.534;2022-09-09T15:02:56;11.32;;;1.50;;
33413;SDS011;60055;41.884;12.534;2022-09-09T15:05:22;13.77;;;1.73;;
33413;SDS011;60055;41.884;12.534;2022-09-09T15:07:49;18.65;;;1.70;;
33413;SDS011;60055;41.884;12.534;2022-09-09T15:10:15;9.80;;;1.55;;
33413;SDS011;60055;41.884;12.534;2022-09-09T15:12:42;10.75;;;1.52;;
33413;SDS011;60055;41.884;12.534;2022-09-09T15:15:08;9.23;;;1.63;;
33413;SDS011;60055;41.884;12.534;2022-09-09T15:17:34;11.32;;;1.80;;
33413;SDS011;60055;41.884;12.534;2022-09-09T15:20:01;12.82;;;1.77;;
33413;SDS011;60055;41.884;12.534;2022-09-09T15:22:27;7.82;;;1.27;;
33413;SDS011;60055;41.884;12.534;2022-09-09T15:24:53;14.93;;;1.45;;
33413;SDS011;60055;41.884;12.534;2022-09-09T15:27:19;9.00;;;1.30;;
33413;SDS011;60055;41.884;12.534;2022-09-09T15:29:44;11.80;;;1.38;;
33413;SDS011;60055;41.884;12.534;2022-09-09T15:32:11;7.13;;;1.08;;
33413;SDS011;60055;41.884;12.534;2022-09-09T15:34:37;8.88;;;1.30;;
33413;SDS011;60055;41.884;12.534;2022-09-09T15:37:03;5.70;;;1.08;;
33413;SDS011;60055;41.884;12.534;2022-09-09T15:39:28;8.80;;;1.33;;
33413;SDS011;60055;41.884;12.534;2022-09-09T15:41:54;8.98;;;1.10;;
33413;SDS011;60055;41.884;12.534;2022-09-09T15:44:20;4.93;;;1.10;;
33413;SDS011;60055;41.884;12.534;2022-09-09T15:46:48;8.05;;;1.40;;
33413;SDS011;60055;41.884;12.534;2022-09-09T15:49:16;7.90;;;1.65;;
33413;SDS011;60055;41.884;12.534;2022-09-09T15:51:57;7.63;;;1.35;;
33413;SDS011;60055;41.884;12.534;2022-09-09T15:54:27;9.20;;;1.38;;
33413;SDS011;60055;41.884;12.534;2022-09-09T15:56:56;6.07;;;1.55;;
33413;SDS011;60055;41.884;12.534;2022-09-09T15:59:24;8.40;;;1.30;;
33413;SDS011;60055;41.884;12.534;2022-09-09T16:01:50;12.35;;;1.45;;
33413;SDS011;60055;41.884;12.534;2022-09-09T16:04:17;7.30;;;1.25;;
33413;SDS011;60055;41.884;12.534;2022-09-09T16:06:52;7.78;;;1.33;;
33413;SDS011;60055;41.884;12.534;2022-09-09T16:09:19;6.93;;;1.58;;
33413;SDS011;60055;41.884;12.534;2022-09-09T16:11:46;8.23;;;1.58;;
33413;SDS011;60055;41.884;12.534;2022-09-09T16:14:12;10.77;;;1.38;;
33413;SDS011;60055;41.884;12.534;2022-09-09T16:16:40;12.68;;;1.50;;
33413;SDS011;60055;41.884;12.534;2022-09-09T16:19:07;9.35;;;1.65;;
33413;SDS011;60055;41.884;12.534;2022-09-09T16:21:39;9.63;;;1.48;;
33413;SDS011;60055;41.884;12.534;2022-09-09T16:24:07;10.50;;;1.23;;
33413;SDS011;60055;41.884;12.534;2022-09-09T16:26:35;7.72;;;1.27;;
33413;SDS011;60055;41.884;12.534;2022-09-09T16:29:03;6.72;;;1.48;;
33413;SDS011;60055;41.884;12.534;2022-09-09T16:31:29;7.90;;;1.58;;
33413;SDS011;60055;41.884;12.534;2022-09-09T16:33:58;10.32;;;1.30;;
33413;SDS011;60055;41.884;12.534;2022-09-09T16:36:28;5.65;;;1.20;;
33413;SDS011;60055;41.884;12.534;2022-09-09T16:38:56;8.40;;;1.50;;
33413;SDS011;60055;41.884;12.534;2022-09-09T16:41:24;8.02;;;1.20;;
33413;SDS011;60055;41.884;12.534;2022-09-09T16:43:56;9.25;;;1.70;;
33413;SDS011;60055;41.884;12.534;2022-09-09T16:46:24;9.30;;;1.40;;
33413;SDS011;60055;41.884;12.534;2022-09-09T16:48:51;11.32;;;1.20;;
33413;SDS011;60055;41.884;12.534;2022-09-09T16:51:18;6.47;;;1.55;;
33413;SDS011;60055;41.884;12.534;2022-09-09T16:53:45;13.52;;;1.65;;
33413;SDS011;60055;41.884;12.534;2022-09-09T16:56:12;6.38;;;1.23;;
33413;SDS011;60055;41.884;12.534;2022-09-09T16:58:40;6.65;;;1.40;;
33413;SDS011;60055;41.884;12.534;2022-09-09T17:01:07;6.18;;;1.60;;
33413;SDS011;60055;41.884;12.534;2022-09-09T17:03:35;10.25;;;1.67;;
33413;SDS011;60055;41.884;12.534;2022-09-09T17:06:02;12.43;;;1.80;;